createdAt,value
2022-09-14T09:19:28.664Z,27.31
2022-09-14T09:27:51.465Z,27.56
2022-09-14T09:30:19.249Z,27.71
2022-09-14T09:32:46.473Z,27.78
2022-09-14T09:45:00.703Z,28.28
2022-09-14T09:50:25.759Z,28.26
2022-09-14T09:53:15.272Z,28.19
2022-09-14T10:01:22.802Z,27.65
2022-09-14T10:04:03.981Z,27.54
2022-09-14T10:07:03.105Z,27.47
2022-09-14T10:12:51.026Z,27.21
2022-09-14T10:24:21.309Z,27.28
2022-09-14T10:26:52.702Z,27.22
2022-09-14T10:29:43.381Z,27.12
2022-09-14T10:35:08.827Z,27.01
2022-09-14T10:44:07.437Z,26.99
2022-09-14T10:47:06.414Z,27.02
2022-09-14T10:49:52.307Z,27.08
2022-09-14T11:21:19.113Z,27.77
2022-09-14T11:27:02.775Z,27.98
2022-09-14T12:05:34.316Z,28.17
2022-09-14T12:40:10.085Z,27.43
2022-09-14T12:52:26.718Z,26.68
2022-09-14T15:27:49.452Z,24.19
2022-09-14T15:36:53.916Z,23.91
2022-09-14T15:39:22.340Z,23.79
2022-09-14T16:54:15.314Z,23.15
2022-09-14T16:56:42.010Z,23.16
2022-09-14T16:59:09.746Z,23.14
2022-09-14T17:01:40.888Z,23.17
2022-09-14T17:04:09.861Z,23.13
2022-09-14T17:06:38.832Z,23.11
2022-09-14T17:09:07.676Z,23.07
2022-09-14T17:11:37.272Z,23.06
2022-09-14T17:14:04.911Z,23.05
2022-09-14T17:16:32.038Z,22.97
2022-09-14T17:19:00.686Z,22.93
2022-09-14T17:21:28.295Z,22.85
2022-09-14T17:23:55.567Z,22.79
2022-09-14T17:26:23.588Z,22.75
2022-09-14T17:28:54.621Z,22.71
2022-09-14T17:31:24.534Z,22.70
2022-09-14T17:33:53.402Z,22.70
2022-09-14T17:36:20.677Z,22.69
2022-09-14T17:38:48.825Z,22.63
2022-09-14T17:41:19.028Z,22.64
2022-09-14T17:43:51.977Z,22.68
2022-09-14T17:46:19.139Z,22.67
2022-09-14T17:48:45.769Z,22.66
2022-09-14T17:51:15.807Z,22.64
2022-09-14T17:53:44.011Z,22.63
2022-09-14T17:56:13.110Z,22.63
2022-09-14T17:58:40.353Z,22.58
2022-09-14T18:01:11.412Z,22.53
2022-09-14T18:03:40.187Z,22.42
2022-09-14T18:06:09.870Z,22.31
2022-09-14T18:08:37.193Z,22.23
2022-09-14T18:11:05.272Z,22.21
2022-09-14T18:13:32.082Z,22.22
2022-09-14T18:15:59.463Z,22.22
2022-09-14T18:18:27.523Z,22.23
2022-09-14T18:20:54.134Z,22.21
2022-09-14T18:23:21.079Z,22.21
2022-09-14T18:25:47.982Z,22.17
2022-09-14T18:28:15.095Z,22.16
2022-09-14T18:30:43.617Z,22.12
2022-09-14T18:33:10.838Z,22.11
2022-09-14T18:35:39.149Z,22.13
2022-09-14T18:38:07.194Z,22.05
2022-09-14T18:40:34.400Z,21.91
2022-09-14T18:43:01.426Z,21.82
2022-09-14T18:45:28.686Z,21.77
2022-09-14T18:47:55.735Z,21.66
2022-09-14T18:50:23.371Z,21.61
2022-09-14T18:52:51.968Z,21.58
2022-09-14T18:55:19.256Z,21.60
2022-09-14T18:57:47.015Z,21.61
2022-09-14T19:00:18.352Z,21.66
2022-09-14T19:02:50.591Z,21.70
2022-09-14T19:05:17.955Z,21.67
2022-09-14T19:07:44.763Z,21.61
2022-09-14T19:10:14.090Z,21.51
2022-09-14T19:12:41.323Z,21.38
2022-09-14T19:15:09.003Z,21.34
2022-09-14T19:17:35.687Z,21.34
2022-09-14T19:20:05.675Z,21.33
2022-09-14T19:22:32.595Z,21.23
2022-09-14T19:24:59.508Z,21.17
2022-09-14T19:27:27.752Z,21.09
2022-09-14T19:29:54.332Z,21.06
2022-09-14T19:32:21.299Z,21.04
2022-09-14T19:34:49.074Z,21.01
2022-09-14T19:37:15.806Z,21.01
2022-09-14T19:39:42.697Z,21.00
2022-09-14T19:42:09.395Z,21.02
2022-09-14T19:44:37.337Z,21.07
2022-09-14T19:47:04.183Z,21.11
2022-09-14T19:49:31.007Z,21.17
2022-09-14T19:51:57.990Z,21.18
2022-09-14T19:54:25.007Z,21.17
2022-09-14T19:56:51.718Z,21.14
2022-09-14T19:59:18.373Z,21.13
2022-09-14T20:01:47.159Z,21.12
2022-09-14T20:04:15.745Z,21.08
2022-09-14T20:06:44.757Z,21.05
2022-09-14T20:09:13.832Z,21.08
2022-09-14T20:11:41.992Z,21.09
2022-09-14T20:14:14.965Z,21.10
2022-09-14T20:16:43.596Z,21.10
2022-09-14T20:19:13.341Z,21.10
2022-09-14T20:21:41.437Z,21.07
2022-09-14T20:24:16.034Z,20.99
2022-09-14T20:26:44.372Z,20.94
2022-09-14T20:29:11.278Z,20.95
2022-09-14T20:31:38.243Z,20.95
2022-09-14T20:34:05.396Z,20.95
2022-09-14T20:36:36.130Z,20.92
2022-09-14T20:39:03.731Z,20.89
2022-09-14T20:41:33.326Z,20.88
2022-09-14T20:44:00.572Z,20.85
2022-09-14T20:46:30.836Z,20.86
2022-09-14T20:48:58.506Z,20.86
2022-09-14T20:51:25.995Z,20.87
2022-09-14T20:53:56.506Z,20.88
2022-09-14T20:56:25.750Z,20.90
2022-09-14T20:58:54.622Z,20.89
2022-09-14T21:01:22.269Z,20.85
2022-09-14T21:03:50.395Z,20.85
2022-09-14T21:06:19.143Z,20.87
2022-09-14T21:08:46.291Z,20.86
2022-09-14T21:11:15.932Z,20.81
2022-09-14T21:13:43.394Z,20.68
2022-09-14T21:16:12.159Z,20.61
2022-09-14T21:18:39.047Z,20.55
2022-09-14T21:21:06.492Z,20.46
2022-09-14T21:23:33.551Z,20.47
2022-09-14T21:26:00.856Z,20.48
2022-09-14T21:28:29.118Z,20.45
2022-09-14T21:31:04.455Z,20.40
2022-09-14T21:33:32.275Z,20.32
2022-09-14T21:36:03.008Z,20.27
2022-09-14T21:38:31.040Z,20.24
2022-09-14T21:40:57.756Z,20.22
2022-09-14T21:43:24.904Z,20.27
2022-09-14T21:45:53.028Z,20.27
2022-09-14T21:48:19.977Z,20.23
2022-09-14T21:50:47.466Z,20.21
2022-09-14T21:53:14.276Z,20.19
2022-09-14T21:55:41.441Z,20.18
2022-09-14T21:58:08.353Z,20.12
2022-09-14T22:00:35.365Z,20.09
2022-09-14T22:03:03.563Z,20.10
2022-09-14T22:05:30.176Z,20.14
2022-09-14T22:07:57.306Z,20.21
2022-09-14T22:10:23.940Z,20.26
2022-09-14T22:12:50.624Z,20.32
2022-09-14T22:15:17.315Z,20.37
2022-09-14T22:17:43.913Z,20.39
2022-09-14T22:20:11.846Z,20.39
2022-09-14T22:22:38.435Z,20.37
2022-09-14T22:25:06.116Z,20.36
2022-09-14T22:27:33.169Z,20.32
2022-09-14T22:30:00.228Z,20.33
2022-09-14T22:32:26.792Z,20.36
2022-09-14T22:34:53.372Z,20.41
2022-09-14T22:37:21.350Z,20.43
2022-09-14T22:39:48.074Z,20.38
2022-09-14T22:42:14.704Z,20.34
2022-09-14T22:44:41.313Z,20.26
2022-09-14T22:47:07.971Z,20.13
2022-09-14T22:49:34.585Z,20.04
2022-09-14T22:52:01.573Z,19.98
2022-09-14T22:54:29.493Z,19.91
2022-09-14T22:56:56.356Z,19.88
2022-09-14T22:59:23.088Z,19.88
2022-09-14T23:01:49.852Z,19.92
2022-09-14T23:04:16.492Z,19.94
2022-09-14T23:06:44.831Z,19.98
2022-09-14T23:09:13.977Z,20.03
2022-09-14T23:11:44.414Z,20.08
2022-09-14T23:14:11.529Z,20.10
2022-09-14T23:16:38.229Z,20.13
2022-09-14T23:19:09.236Z,20.18
2022-09-14T23:21:35.958Z,20.21
2022-09-14T23:24:04.939Z,20.21
2022-09-14T23:26:31.913Z,20.13
2022-09-14T23:29:01.968Z,20.09
2022-09-14T23:31:29.889Z,20.04
2022-09-14T23:33:57.894Z,20.03
2022-09-14T23:36:25.154Z,20.04
2022-09-14T23:38:52.554Z,20.04
2022-09-14T23:41:20.815Z,19.94
2022-09-14T23:43:47.994Z,19.84
2022-09-14T23:46:17.127Z,19.80
2022-09-14T23:48:44.485Z,19.73
2022-09-14T23:51:12.107Z,19.73
2022-09-14T23:53:39.756Z,19.74
2022-09-14T23:56:07.137Z,19.74
2022-09-14T23:58:34.157Z,19.72
